»·PEaware :: N2144V KWJF-KSNA

N2144V :: KWJF-KSNA

FLIGHT INFORMATION

Flight Status: Arrived
Operator: Privately registered:
United States
More flights under this callsign
Pilot: Floris F. (3633)
Aircraft: CESSNA 500 CITATION 1
(C500)
More flights by this aircraft type
Origin: KWJF Gen Fox
United States
Destination: KSNA John Wayne-Orange Co
United States
More flights between these airports :: More routes between these airports
Route: +PMD V201 BERRI V459 SLI
File this flight plan on PilotEdge
Remarks: tec edwn2
Altitude:
(Current/Filed)
9,000ft
Speed:
(Current/Filed)
130kts
Departed: 06-May-16 05:22 PM
Arrived: 06-May-16 05:58 PM
Distance/Time
Traveled:
66nm/0:36
Distance/Time
To Go:
Arrived

Flight Plot

Page will automatically refresh every two minutes.


Map Options




Map Legend


Flown Route
Filed Route
Departure Airport
Arrival Airport
Navaid (VOR, NDB)
Fix

Horizontal Profiles

Position Reports

Time Latitude Longitude Heading Altitude Ground
Speed
06-May-16 16:56 34.738781 -118.216256 161 2350ft 0kts
06-May-16 16:57 34.738781 -118.216256 161 2350ft 0kts
06-May-16 16:58 34.738781 -118.216256 161 2350ft 0kts
06-May-16 16:59 34.738781 -118.216256 161 2350ft 0kts
06-May-16 17:00 34.738781 -118.216256 161 2350ft 0kts
06-May-16 17:01 34.738781 -118.216256 161 2350ft 0kts
06-May-16 17:02 34.738781 -118.216256 161 2350ft 0kts
06-May-16 17:03 34.738781 -118.216256 161 2350ft 0kts
06-May-16 17:04 34.738781 -118.216256 161 2350ft 0kts
06-May-16 17:05 34.738781 -118.216256 161 2350ft 0kts
06-May-16 17:06 34.738781 -118.216256 161 2350ft 0kts
06-May-16 17:07 34.738781 -118.216256 161 2350ft 0kts
06-May-16 17:08 34.738781 -118.216256 161 2350ft 0kts
06-May-16 17:09 34.738781 -118.216256 161 2350ft 0kts
06-May-16 17:10 34.738781 -118.216256 161 2350ft 0kts
06-May-16 17:11 34.738781 -118.216256 161 2350ft 0kts
06-May-16 17:12 34.738781 -118.216256 161 2350ft 0kts
06-May-16 17:13 34.738781 -118.216256 161 2350ft 0kts
06-May-16 17:14 34.738781 -118.216256 161 2350ft 0kts
06-May-16 17:15 34.738741 -118.216162 69 2350ft 3kts
06-May-16 17:16 34.740887 -118.214991 61 2350ft 10kts
06-May-16 17:17 34.742410 -118.209807 78 2350ft 19kts
06-May-16 17:18 34.743431 -118.207238 343 2350ft 0kts
06-May-16 17:19 34.743431 -118.207238 343 2350ft 0kts
06-May-16 17:20 34.743432 -118.207239 343 2350ft 0kts
06-May-16 17:21 34.742859 -118.211878 250 2350ft 73kts
06-May-16 17:22 34.729792 -118.246962 208 4030ft 153kts
06-May-16 17:23 34.693782 -118.212933 106 6204ft 234kts
06-May-16 17:24 34.677940 -118.142017 113 9009ft 237kts
06-May-16 17:25 34.627278 -118.080820 173 9002ft 277kts
06-May-16 17:26 34.553670 -118.103820 203 9001ft 275kts
06-May-16 17:27 34.484366 -118.141376 204 9010ft 261kts
06-May-16 17:28 34.420531 -118.175546 204 9010ft 242kts
06-May-16 17:29 34.360175 -118.207567 204 9018ft 236kts
06-May-16 17:30 34.298115 -118.240374 204 9001ft 247kts
06-May-16 17:31 34.244494 -118.268708 203 8999ft 254kts
06-May-16 17:32 34.164808 -118.276741 158 9002ft 261kts
06-May-16 17:33 34.110062 -118.244686 154 9004ft 261kts
06-May-16 17:34 34.034029 -118.199255 155 9002ft 261kts
06-May-16 17:35 33.977070 -118.178386 178 8813ft 260kts
06-May-16 17:36 33.904733 -118.179034 182 7712ft 259kts
06-May-16 17:37 33.833459 -118.181096 182 7014ft 248kts
06-May-16 17:38 33.764740 -118.183137 182 7001ft 246kts
06-May-16 17:39 33.708935 -118.144357 112 6399ft 274kts
06-May-16 17:40 33.691476 -118.059834 103 5191ft 258kts
06-May-16 17:41 33.693771 -117.982503 47 5004ft 230kts
06-May-16 17:42 33.743467 -117.938745 32 5000ft 215kts
06-May-16 17:43 33.792532 -117.899533 32 4997ft 208kts
06-May-16 17:44 33.840559 -117.861113 32 4995ft 205kts
06-May-16 17:45 33.888052 -117.823080 32 5000ft 203kts
06-May-16 17:46 33.935190 -117.785299 32 5006ft 203kts
06-May-16 17:47 33.962043 -117.731539 95 4672ft 203kts
06-May-16 17:48 33.924200 -117.706533 209 3559ft 167kts
06-May-16 17:49 33.888152 -117.733293 210 3500ft 145kts
06-May-16 17:50 33.853388 -117.755915 209 3491ft 139kts
06-May-16 17:51 33.816510 -117.779448 209 2894ft 155kts
06-May-16 17:52 33.779986 -117.802645 209 2169ft 136kts
06-May-16 17:53 33.748390 -117.822714 209 1524ft 121kts
06-May-16 17:54 33.722176 -117.839347 210 964ft 96kts
06-May-16 17:55 33.699351 -117.853846 209 479ft 89kts
06-May-16 17:56 33.677044 -117.867990 207 58ft 71kts
06-May-16 17:57 33.674094 -117.870646 294 58ft 0kts
06-May-16 17:58 33.674077 -117.871767 260 58ft 11kts
06-May-16 17:59 33.674078 -117.872099 281 58ft 0kts

Navigation Log

Ident Type
Flight plan parsing failed, navigation log unavailable